Time;durP1;ratioP1;P1;durP2;ratioP2;P2;SDS_P1;SDS_P2;PMS_P1;PMS_P2;Temp;Humidity;BMP_temperature;BMP_pressure;BME280_temperature;BME280_humidity;BME280_pressure;Samples;Min_cycle;Max_cycle;Signal;HPM_P1;HPM_P2
2022/07/23 00:00:33;;;;;;;;;25.67;21.00;;;;;21.95;66.92;101530.97;5082039;27;45349;-68
2022/07/23 00:02:59;;;;;;;;;22.00;19.00;;;;;21.96;67.27;101538.09;5081812;27;45231;-68
2022/07/23 00:05:24;;;;;;;;;16.33;16.33;;;;;21.95;67.21;101531.84;5081778;27;46250;-68
2022/07/23 00:07:49;;;;;;;;;20.00;16.67;;;;;21.94;66.62;101529.25;5080785;27;58025;-68
2022/07/23 00:10:15;;;;;;;;;15.67;13.00;;;;;21.92;65.98;101531.25;5081813;27;45369;-68
2022/07/23 00:12:41;;;;;;;;;16.00;15.33;;;;;21.91;66.30;101540.34;5080964;27;62920;-69
2022/07/23 00:15:08;;;;;;;;;17.50;15.50;;;;;21.90;65.93;101544.91;5081694;27;46951;-68
2022/07/23 00:17:33;;;;;;;;;19.67;19.67;;;;;21.92;66.25;101532.09;5080088;28;45485;-69
2022/07/23 00:19:59;;;;;;;;;17.67;15.67;;;;;21.94;65.54;101532.81;5081099;27;61067;-69
2022/07/23 00:22:25;;;;;;;;;14.67;14.67;;;;;21.98;66.00;101534.28;5081517;27;45379;-68
2022/07/23 00:24:50;;;;;;;;;18.00;16.33;;;;;22.02;66.15;101542.13;5081686;27;46152;-69
2022/07/23 00:27:15;;;;;;;;;17.67;16.33;;;;;22.02;66.80;101532.16;5080631;27;45413;-68
2022/07/23 00:29:41;;;;;;;;;14.33;12.67;;;;;22.00;66.43;101527.88;5081082;27;48541;-68
2022/07/23 00:32:06;;;;;;;;;19.67;19.67;;;;;21.98;66.64;101530.72;5080510;27;66304;-69
2022/07/23 00:34:31;;;;;;;;;21.33;20.33;;;;;21.97;66.74;101535.25;5080483;27;66530;-69
2022/07/23 00:36:57;;;;;;;;;28.00;25.67;;;;;21.94;67.10;101530.13;5081189;27;45339;-69
2022/07/23 00:39:22;;;;;;;;;24.00;22.33;;;;;21.95;67.22;101536.38;5081302;27;45313;-70
2022/07/23 00:41:48;;;;;;;;;28.33;25.33;;;;;21.93;67.69;101528.38;5081329;27;45593;-69
2022/07/23 00:44:23;;;;;;;;;27.33;23.33;;;;;21.94;67.90;101529.25;5081124;27;45215;-70
2022/07/23 00:46:55;;;;;;;;;25.67;24.67;;;;;21.92;67.85;101523.97;5081162;27;45370;-70
2022/07/23 00:49:26;;;;;;;;;26.00;23.67;;;;;21.88;67.25;101533.34;5081050;27;45393;-69
2022/07/23 00:51:52;;;;;;;;;28.67;25.00;;;;;21.86;67.29;101534.47;5081268;27;45397;-69
2022/07/23 00:54:18;;;;;;;;;22.00;20.00;;;;;21.84;68.03;101529.19;5079647;28;46132;-67
2022/07/23 00:56:45;;;;;;;;;27.00;27.00;;;;;21.82;67.50;101525.75;5081027;28;45513;-67
2022/07/23 00:59:10;;;;;;;;;22.33;21.00;;;;;21.82;67.62;101525.75;5081126;27;45460;-68
2022/07/23 01:01:36;;;;;;;;;21.33;20.33;;;;;21.80;67.58;101525.88;5081115;27;45592;-67
2022/07/23 01:04:01;;;;;;;;;19.00;19.00;;;;;21.77;67.84;101520.75;5080742;27;46634;-68
2022/07/23 01:06:27;;;;;;;;;11.33;10.67;;;;;21.72;67.67;101528.41;5079586;28;45655;-68
2022/07/23 01:08:54;;;;;;;;;23.00;21.00;;;;;21.70;67.51;101524.97;5080955;27;45303;-68
2022/07/23 01:11:20;;;;;;;;;26.33;25.00;;;;;21.70;67.98;101518.69;5081102;27;45276;-68
2022/07/23 01:13:45;;;;;;;;;20.00;19.67;;;;;21.70;67.76;101518.69;5080170;27;61325;-68
2022/07/23 01:16:10;;;;;;;;;18.67;18.00;;;;;21.64;68.33;101518.25;5080685;28;45411;-69
2022/07/23 01:18:36;;;;;;;;;20.67;20.67;;;;;21.59;68.29;101515.06;5079195;28;45523;-68
2022/07/23 01:21:02;;;;;;;;;19.67;18.00;;;;;21.58;68.03;101518.75;5079349;28;45395;-67
2022/07/23 01:23:27;;;;;;;;;15.00;12.00;;;;;21.58;68.09;101516.06;5080392;27;46133;-68
2022/07/23 01:25:53;;;;;;;;;22.33;22.33;;;;;21.58;67.55;101518.75;5079887;27;65808;-68
2022/07/23 01:28:18;;;;;;;;;19.33;18.00;;;;;21.61;67.19;101514.94;5080726;27;45415;-68
2022/07/23 01:30:46;;;;;;;;;16.33;14.67;;;;;21.59;67.78;101517.78;5079543;27;64807;-68
2022/07/23 01:33:12;;;;;;;;;19.00;18.00;;;;;21.57;67.53;101518.91;5080224;27;46953;-68
2022/07/23 01:35:37;;;;;;;;;20.00;19.67;;;;;21.56;67.42;101515.34;5079884;27;63134;-68
2022/07/23 01:38:02;;;;;;;;;13.00;13.00;;;;;21.57;67.23;101502.66;5080219;27;45829;-68
2022/07/23 01:40:28;;;;;;;;;22.67;20.00;;;;;21.59;67.15;101517.78;5078442;27;66063;-69
2022/07/23 01:42:53;;;;;;;;;16.67;15.67;;;;;21.62;66.99;101514.78;5079908;27;57216;-68
2022/07/23 01:45:18;;;;;;;;;21.33;20.00;;;;;21.65;66.97;101519.09;5079780;27;62003;-68
2022/07/23 01:47:44;;;;;;;;;15.67;14.67;;;;;21.63;67.46;101505.69;5079330;27;64450;-68
2022/07/23 01:50:09;;;;;;;;;17.33;17.33;;;;;21.62;66.57;101511.25;5079867;27;61141;-69
2022/07/23 01:52:34;;;;;;;;;16.67;15.67;;;;;21.59;66.81;101508.78;5079790;27;51736;-69
2022/07/23 01:55:00;;;;;;;;;20.00;15.33;;;;;21.55;67.26;101501.91;5079392;27;68148;-68
2022/07/23 01:57:25;;;;;;;;;17.67;17.00;;;;;21.51;66.72;101504.03;5079507;27;61812;-68
2022/07/23 01:59:50;;;;;;;;;13.00;13.00;;;;;21.48;66.94;101513.25;5079307;27;67592;-68
2022/07/23 02:02:16;;;;;;;;;17.33;16.33;;;;;21.48;67.17;101507.84;5079373;27;64082;-68
2022/07/23 02:04:41;;;;;;;;;18.33;15.00;;;;;21.48;67.29;101507.84;5079365;27;65846;-68
2022/07/23 02:07:07;;;;;;;;;18.67;15.67;;;;;21.48;67.37;101506.97;5079124;27;64565;-69
2022/07/23 02:09:32;;;;;;;;;22.67;17.67;;;;;21.46;66.87;101509.81;5080135;27;45468;-69
2022/07/23 02:11:58;;;;;;;;;16.67;16.33;;;;;21.50;66.72;101505.00;5079696;27;46948;-69
2022/07/23 02:14:24;;;;;;;;;18.67;17.67;;;;;21.53;66.81;101509.28;5079898;27;45461;-69
2022/07/23 02:16:50;;;;;;;;;18.33;16.00;;;;;21.56;66.79;101507.22;5080080;27;45381;-69
2022/07/23 02:19:15;;;;;;;;;13.67;13.00;;;;;21.59;67.15;101503.38;5078819;27;64276;-69
2022/07/23 02:21:40;;;;;;;;;15.67;15.00;;;;;21.57;67.03;101510.78;5079025;27;67399;-69
2022/07/23 02:24:06;;;;;;;;;19.00;16.00;;;;;21.53;67.00;101512.84;5079892;27;45417;-69
2022/07/23 02:26:34;;;;;;;;;20.00;17.67;;;;;21.52;66.45;101513.84;5080116;27;45296;-69
2022/07/23 02:29:00;;;;;;;;;17.67;14.67;;;;;21.52;66.15;101518.41;5079920;27;45346;-69
2022/07/23 02:31:25;;;;;;;;;16.00;14.33;;;;;21.51;66.81;101519.38;5079524;27;45487;-69
2022/07/23 02:33:50;;;;;;;;;15.33;14.67;;;;;21.48;67.09;101525.91;5078772;28;64675;-69
2022/07/23 02:36:16;;;;;;;;;15.33;14.33;;;;;21.47;66.85;101533.19;5079659;27;45713;-69
2022/07/23 02:38:41;;;;;;;;;15.00;14.67;;;;;21.46;66.69;101531.47;5079798;27;45354;-69
2022/07/23 02:41:06;;;;;;;;;18.33;17.00;;;;;21.48;66.87;101534.03;5079323;27;45806;-69
2022/07/23 02:43:32;;;;;;;;;14.33;14.33;;;;;21.48;66.60;101534.03;5078740;27;69128;-69
2022/07/23 02:45:57;;;;;;;;;16.00;16.00;;;;;21.49;66.93;101541.16;5078994;27;61449;-69
2022/07/23 02:48:22;;;;;;;;;14.33;13.67;;;;;21.47;66.35;101532.31;5079432;27;45465;-69
2022/07/23 02:50:48;;;;;;;;;18.67;16.00;;;;;21.44;66.45;101535.28;5079751;27;68618;-70
2022/07/23 02:53:13;;;;;;;;;15.67;13.00;;;;;21.43;66.18;101539.84;5082552;27;53363;-70
2022/07/23 02:55:38;;;;;;;;;14.00;12.33;;;;;21.43;65.99;101533.56;5083011;27;45420;-70
2022/07/23 02:58:04;;;;;;;;;11.00;11.00;;;;;21.39;66.23;101538.38;5082180;27;67968;-70
2022/07/23 03:00:29;;;;;;;;;15.67;13.00;;;;;21.37;66.52;101542.19;5081974;27;69576;-69
2022/07/23 03:02:54;;;;;;;;;19.00;16.00;;;;;21.34;66.21;101547.88;5082121;27;63893;-69
2022/07/23 03:05:19;;;;;;;;;12.67;12.67;;;;;21.32;65.68;101551.56;5082123;27;64769;-69
2022/07/23 03:07:45;;;;;;;;;13.33;11.67;;;;;21.30;65.80;101558.97;5082057;27;60843;-69
2022/07/23 03:10:10;;;;;;;;;13.00;12.67;;;;;21.25;66.35;101553.06;5082585;27;51739;-69
2022/07/23 03:12:35;;;;;;;;;17.67;15.67;;;;;21.24;66.19;101559.47;5081915;27;65450;-69
2022/07/23 03:15:01;;;;;;;;;11.67;11.67;;;;;21.22;66.56;101553.31;5082221;27;58218;-69
2022/07/23 03:17:26;;;;;;;;;16.67;13.33;;;;;21.19;65.94;101550.88;5080659;28;60104;-69
2022/07/23 03:19:52;;;;;;;;;14.33;14.33;;;;;21.18;66.02;101551.00;5082522;27;46130;-70
2022/07/23 03:22:17;;;;;;;;;13.33;13.00;;;;;21.18;66.48;101551.84;5081681;27;67016;-69
2022/07/23 03:24:54;;;;;;;;;14.00;14.00;;;;;21.18;65.79;101545.59;5082235;27;54890;-69
2022/07/23 03:27:24;;;;;;;;;16.67;16.00;;;;;21.18;66.27;101551.84;5082525;27;45328;-69
2022/07/23 03:29:50;;;;;;;;;16.00;13.33;;;;;21.16;66.17;101559.25;5082056;27;47169;-69
2022/07/23 03:32:16;;;;;;;;;10.33;10.33;;;;;21.16;65.67;101570.06;5082301;27;45619;-69
2022/07/23 03:34:41;;;;;;;;;17.00;17.00;;;;;21.17;65.50;101570.94;5081593;27;65204;-69
2022/07/23 03:37:07;;;;;;;;;15.33;13.00;;;;;21.16;66.13;101572.78;5081668;27;62674;-70
2022/07/23 03:39:32;;;;;;;;;16.33;13.00;;;;;21.13;65.29;101573.91;5081874;27;45966;-69
2022/07/23 03:41:57;;;;;;;;;15.00;13.33;;;;;21.09;65.17;101568.84;5081457;27;64431;-69
2022/07/23 03:44:23;;;;;;;;;16.00;16.00;;;;;21.06;65.88;101574.53;5081658;27;61642;-70
2022/07/23 03:46:48;;;;;;;;;15.33;13.67;;;;;21.04;65.49;101563.84;5081578;27;61716;-69
2022/07/23 03:49:14;;;;;;;;;11.67;11.33;;;;;21.02;65.91;101568.50;5081902;28;45909;-69
2022/07/23 03:51:39;;;;;;;;;13.67;13.67;;;;;21.00;65.56;101570.47;5081788;27;54979;-68
2022/07/23 03:54:04;;;;;;;;;15.00;14.33;;;;;20.99;65.83;101564.22;5081543;27;58889;-69
2022/07/23 03:56:30;;;;;;;;;16.67;15.33;;;;;20.98;65.76;101576.00;5081715;27;54070;-70
2022/07/23 03:58:55;;;;;;;;;15.67;15.00;;;;;20.98;66.26;101567.88;5080954;27;72717;-69
2022/07/23 04:01:21;;;;;;;;;17.33;15.67;;;;;20.98;66.46;101569.75;5081686;27;45339;-68
2022/07/23 04:03:46;;;;;;;;;15.67;15.33;;;;;20.98;66.81;101569.75;5080009;27;65792;-68
2022/07/23 04:06:12;;;;;;;;;17.33;16.33;;;;;20.94;66.70;101574.53;5082120;27;45446;-70
2022/07/23 04:08:37;;;;;;;;;18.00;16.00;;;;;20.92;66.33;101581.06;5081756;27;46083;-67
2022/07/23 04:11:02;;;;;;;;;16.00;15.00;;;;;20.90;66.76;101583.91;5081013;27;66475;-68
2022/07/23 04:13:28;;;;;;;;;16.33;14.33;;;;;20.88;66.82;101580.44;5081197;27;63890;-68
2022/07/23 04:15:53;;;;;;;;;16.33;15.33;;;;;20.84;66.61;101584.38;5080928;27;66597;-68
2022/07/23 04:18:20;;;;;;;;;15.00;14.00;;;;;20.84;66.54;101583.53;5080556;27;63942;-68
2022/07/23 04:20:46;;;;;;;;;14.00;14.00;;;;;20.87;66.28;101588.69;5081496;27;45294;-68
2022/07/23 04:23:12;;;;;;;;;17.33;14.33;;;;;20.89;66.25;101590.28;5081070;27;55069;-68
2022/07/23 04:25:37;;;;;;;;;18.33;15.67;;;;;20.89;65.97;101590.28;5081693;27;45509;-68
2022/07/23 04:28:03;;;;;;;;;14.33;13.33;;;;;20.92;66.22;101589.16;5080711;27;61896;-68
2022/07/23 04:30:28;;;;;;;;;18.33;16.33;;;;;20.94;66.44;101598.03;5081301;27;45471;-68
2022/07/23 04:32:53;;;;;;;;;22.67;18.67;;;;;20.92;66.03;101598.13;5081207;28;46621;-68
2022/07/23 04:35:19;;;;;;;;;15.00;13.00;;;;;20.92;66.18;101597.28;5080927;27;61982;-68
2022/07/23 04:37:44;;;;;;;;;23.33;19.33;;;;;20.92;65.94;101597.28;5080244;27;70867;-68
2022/07/23 04:40:11;;;;;;;;;14.00;14.00;;;;;20.92;66.31;101592.72;5080603;27;65424;-68
2022/07/23 04:42:36;;;;;;;;;14.00;14.00;;;;;20.94;65.86;101593.47;5081473;27;45355;-68
2022/07/23 04:45:03;;;;;;;;;11.33;11.33;;;;;20.95;66.11;101597.91;5080663;27;59114;-68
2022/07/23 04:47:29;;;;;;;;;15.00;15.00;;;;;20.95;65.54;101603.31;5079225;28;45696;-68
2022/07/23 04:49:54;;;;;;;;;18.33;14.67;;;;;20.98;64.83;101596.78;5081011;27;45397;-68
2022/07/23 04:52:19;;;;;;;;;14.67;14.67;;;;;20.98;65.56;101603.03;5080501;27;61301;-68
2022/07/23 04:54:45;;;;;;;;;14.00;13.33;;;;;20.98;65.30;101599.50;5080366;27;61488;-67
2022/07/23 04:57:10;;;;;;;;;15.33;14.33;;;;;20.98;65.06;101608.44;5080138;27;69745;-67
2022/07/23 04:59:35;;;;;;;;;16.33;13.00;;;;;20.98;64.82;101613.84;5080249;27;64038;-67
2022/07/23 05:02:01;;;;;;;;;13.00;13.00;;;;;20.96;64.99;101606.84;5081162;27;45760;-67
2022/07/23 05:04:26;;;;;;;;;15.00;14.00;;;;;20.94;65.20;101617.81;5080773;27;45276;-67
2022/07/23 05:06:52;;;;;;;;;15.00;15.00;;;;;20.96;65.24;101612.25;5080718;27;46884;-67
2022/07/23 05:09:17;;;;;;;;;17.33;15.67;;;;;20.96;65.72;101599.63;5080597;27;45447;-69
2022/07/23 05:11:42;;;;;;;;;15.33;14.67;;;;;20.98;65.56;101610.31;5080641;27;49307;-68
2022/07/23 05:14:08;;;;;;;;;18.00;16.67;;;;;21.00;65.76;101619.13;5080183;27;50068;-68
2022/07/23 05:16:33;;;;;;;;;13.67;13.33;;;;;21.03;65.85;101609.91;5080714;27;47097;-68
2022/07/23 05:18:58;;;;;;;;;13.33;12.67;;;;;21.04;65.87;101617.94;5079856;27;62067;-68
2022/07/23 05:21:24;;;;;;;;;12.33;11.67;;;;;21.04;66.01;101611.63;5080107;27;59577;-68
2022/07/23 05:23:49;;;;;;;;;17.00;14.67;;;;;21.02;66.03;101603.66;5080023;27;61412;-67
2022/07/23 05:26:14;;;;;;;;;12.67;12.67;;;;;21.03;65.36;101601.81;5080453;27;50319;-67
2022/07/23 05:28:40;;;;;;;;;13.33;11.33;;;;;21.04;66.13;101617.06;5079686;27;63319;-67
2022/07/23 05:31:05;;;;;;;;;13.33;13.00;;;;;21.04;65.93;101607.13;5080467;27;45433;-67
2022/07/23 05:33:31;;;;;;;;;22.67;18.00;;;;;21.05;66.06;101607.97;5079414;27;45437;-68
2022/07/23 05:36:03;;;;;;;;;13.67;12.00;;;;;21.06;65.87;101598.88;5080041;27;55221;-68
2022/07/23 05:38:29;;;;;;;;;12.33;11.67;;;;;21.05;66.35;101606.09;5080023;27;45371;-67
2022/07/23 05:40:54;;;;;;;;;19.67;17.00;;;;;21.06;66.17;101610.53;5080355;27;45283;-67
2022/07/23 05:43:20;;;;;;;;;18.33;17.33;;;;;21.08;65.69;101610.41;5079736;27;58943;-67
2022/07/23 05:45:45;;;;;;;;;18.00;17.00;;;;;21.10;66.15;101613.84;5078957;28;47227;-67
2022/07/23 05:48:10;;;;;;;;;20.67;20.00;;;;;21.14;66.09;101615.31;5079399;27;53257;-67
2022/07/23 05:50:36;;;;;;;;;11.33;8.00;;;;;21.20;65.11;101616.63;5079720;27;58693;-67
2022/07/23 05:53:01;;;;;;;;;23.67;20.33;;;;;21.26;65.36;101611.59;5079386;27;63159;-69
2022/07/23 05:55:28;;;;;;;;;17.00;17.00;;;;;21.32;65.25;101610.22;5080142;27;45580;-69
2022/07/23 05:57:57;;;;;;;;;21.00;20.33;;;;;21.37;65.27;101610.72;5079944;27;45465;-68
2022/07/23 06:00:23;;;;;;;;;16.67;16.67;;;;;21.43;65.08;101614.72;5079855;27;45438;-67
2022/07/23 06:02:48;;;;;;;;;29.67;21.67;;;;;21.48;65.26;101612.50;5079829;27;45416;-68
2022/07/23 06:05:13;;;;;;;;;21.67;20.33;;;;;21.52;65.35;101613.13;5079889;27;46355;-68
2022/07/23 06:07:39;;;;;;;;;21.33;20.33;;;;;21.53;65.04;101618.41;5079598;27;49001;-67
2022/07/23 06:10:05;;;;;;;;;23.67;22.67;;;;;21.55;65.02;101616.47;5079946;27;46367;-67
2022/07/23 06:12:30;;;;;;;;;32.00;27.00;;;;;21.60;65.10;101616.94;5080050;27;45423;-68
2022/07/23 06:14:55;;;;;;;;;30.67;30.00;;;;;21.64;64.78;101623.81;5079782;27;48723;-67
2022/07/23 06:17:21;;;;;;;;;33.67;25.67;;;;;21.68;65.15;101620.81;5079637;27;45446;-68
2022/07/23 06:19:46;;;;;;;;;30.00;26.33;;;;;;;;5079814;27;45319;-67
2022/07/23 06:22:11;;;;;;;;;28.33;26.67;;;;;21.72;64.81;101630.41;5079788;28;45302;-68
2022/07/23 06:24:37;;;;;;;;;36.00;31.00;;;;;21.75;65.51;101632.88;5079740;27;46211;-68
2022/07/23 06:27:03;;;;;;;;;37.67;32.67;;;;;21.77;65.14;101634.47;5082619;27;45443;-67
2022/07/23 06:29:28;;;;;;;;;37.67;32.00;;;;;21.76;64.91;101635.44;5083326;27;45491;-68
2022/07/23 06:31:54;;;;;;;;;38.33;33.67;;;;;21.76;65.22;101642.72;5064639;27;45327;-68
2022/07/23 06:34:19;;;;;;;;;31.67;30.33;;;;;21.73;65.69;101637.53;5062320;28;60309;-67
2022/07/23 06:36:44;;;;;;;;;37.33;32.00;;;;;21.69;65.86;101638.78;5062597;28;45705;-67
2022/07/23 06:39:10;;;;;;;;;39.67;32.00;;;;;21.67;65.81;101635.34;5062277;28;61964;-67
2022/07/23 06:41:35;;;;;;;;;39.33;33.00;;;;;21.64;65.67;101640.03;5062564;28;49727;-67
2022/07/23 06:44:01;;;;;;;;;42.67;36.33;;;;;21.59;66.35;101646.81;5062634;28;47069;-67
2022/07/23 06:46:26;;;;;;;;;44.67;35.33;;;;;21.54;66.09;101651.75;5062006;28;63445;-67
2022/07/23 06:48:51;;;;;;;;;39.33;34.00;;;;;21.54;66.55;101649.91;5061645;28;66494;-68
2022/07/23 06:51:17;;;;;;;;;45.00;34.67;;;;;21.54;66.08;101647.22;5061830;28;61076;-68
2022/07/23 06:53:42;;;;;;;;;51.67;38.33;;;;;21.57;66.81;101643.41;5061539;28;73405;-68
2022/07/23 06:56:07;;;;;;;;;40.67;34.67;;;;;21.58;66.70;101647.81;5062896;28;45357;-67
2022/07/23 06:58:33;;;;;;;;;44.67;34.67;;;;;21.59;66.57;101653.09;5062808;28;45327;-67
2022/07/23 07:00:58;;;;;;;;;41.33;36.33;;;;;21.58;66.14;101653.25;5061709;28;59213;-68
2022/07/23 07:03:23;;;;;;;;;44.33;35.67;;;;;21.58;66.53;101664.06;5061338;28;70000;-68
2022/07/23 07:05:49;;;;;;;;;47.33;39.33;;;;;21.59;66.46;101661.22;5061516;28;69091;-68
2022/07/23 07:08:15;;;;;;;;;37.00;30.67;;;;;21.62;66.24;101665.53;5062595;28;45447;-69
2022/07/23 07:10:40;;;;;;;;;44.33;35.67;;;;;21.63;66.09;101668.09;5062405;28;45354;-68
2022/07/23 07:13:06;;;;;;;;;40.33;33.00;;;;;21.67;66.58;101670.53;5062255;28;45998;-68
2022/07/23 07:15:31;;;;;;;;;50.33;35.67;;;;;21.73;65.92;101672.72;5061522;28;60720;-67
2022/07/23 07:17:56;;;;;;;;;45.33;38.00;;;;;21.79;65.99;101674.94;5061213;28;63876;-68
2022/07/23 07:20:23;;;;;;;;;43.33;35.00;;;;;21.84;66.25;101671.81;5061576;28;60910;-68
2022/07/23 07:22:48;;;;;;;;;46.67;35.33;;;;;21.88;65.54;101676.03;5061768;28;46337;-68
2022/07/23 07:25:13;;;;;;;;;45.33;35.67;;;;;21.94;66.11;101681.78;5061863;28;45261;-68
2022/07/23 07:27:39;;;;;;;;;45.67;35.67;;;;;21.95;65.98;101678.06;5061883;28;48596;-68
2022/07/23 07:30:06;;;;;;;;;43.00;30.67;;;;;21.99;65.63;101678.66;5068234;28;45485;-67
2022/07/23 07:32:36;;;;;;;;;38.67;32.67;;;;;21.99;65.35;101689.47;5061748;28;46402;-68
2022/07/23 07:35:02;;;;;;;;;35.67;32.33;;;;;22.02;65.55;101685.66;5061884;28;45476;-69
2022/07/23 07:37:28;;;;;;;;;43.00;33.00;;;;;22.13;65.86;101691.03;5060400;28;45433;-67
2022/07/23 07:39:53;;;;;;;;;46.00;36.67;;;;;22.23;65.65;101693.81;5061813;28;45467;-68
2022/07/23 07:42:19;;;;;;;;;33.67;29.33;;;;;22.35;65.12;101690.03;5061679;28;46197;-68
2022/07/23 07:44:44;;;;;;;;;52.00;38.33;;;;;22.40;64.88;101687.84;5061670;28;45363;-68
2022/07/23 07:47:09;;;;;;;;;48.67;35.00;;;;;22.45;64.47;101696.41;5060890;28;60448;-67
2022/07/23 07:49:35;;;;;;;;;47.00;37.33;;;;;22.51;64.44;101695.03;5060425;28;46429;-68
2022/07/23 07:52:00;;;;;;;;;39.00;32.33;;;;;22.56;64.42;101691.91;5060544;28;72154;-68
2022/07/23 07:54:25;;;;;;;;;44.67;36.67;;;;;22.59;64.35;101692.53;5060483;28;62843;-68
2022/07/23 07:56:51;;;;;;;;;48.67;37.67;;;;;22.68;64.26;101698.97;5060013;28;64209;-68
2022/07/23 07:59:17;;;;;;;;;38.67;31.00;;;;;22.76;63.51;101701.00;5059149;28;45905;-67
2022/07/23 08:01:42;;;;;;;;;40.67;34.67;;;;;22.82;63.87;101696.91;5060616;28;45991;-67
2022/07/23 08:04:07;;;;;;;;;44.00;36.33;;;;;22.84;63.45;101695.78;5059426;28;58712;-67
2022/07/23 08:06:33;;;;;;;;;43.67;36.00;;;;;22.88;63.28;101699.94;5060074;28;56618;-67
2022/07/23 08:08:58;;;;;;;;;43.33;35.33;;;;;22.95;63.25;101709.22;5059864;28;61860;-67
2022/07/23 08:11:23;;;;;;;;;41.67;35.00;;;;;22.95;62.93;101705.69;5059650;28;72674;-68
2022/07/23 08:13:49;;;;;;;;;45.00;35.33;;;;;22.91;62.92;101702.38;5059255;28;63622;-68
2022/07/23 08:16:14;;;;;;;;;37.67;32.67;;;;;22.92;63.51;101706.81;5056551;28;45282;-68
2022/07/23 08:18:39;;;;;;;;;31.67;27.00;;;;;22.93;63.00;101703.09;5059184;28;62660;-68
2022/07/23 08:21:05;;;;;;;;;45.33;35.67;;;;;23.01;63.06;101707.84;5060783;28;46123;-69
2022/07/23 08:23:31;;;;;;;;;40.67;32.67;;;;;23.10;62.80;101711.56;5060799;28;45418;-68
2022/07/23 08:25:56;;;;;;;;;41.00;33.00;;;;;23.17;62.49;101718.22;5060779;28;45457;-68
2022/07/23 08:28:22;;;;;;;;;41.67;35.33;;;;;23.22;62.28;101721.38;5058323;28;45566;-68
2022/07/23 08:30:47;;;;;;;;;37.67;33.00;;;;;23.24;62.34;101730.22;5070727;28;46035;-68
2022/07/23 08:33:15;;;;;;;;;30.00;28.67;;;;;23.24;61.98;101722.09;5080754;27;45463;-68
2022/07/23 08:35:44;;;;;;;;;33.67;30.00;;;;;23.23;62.36;101739.38;5081062;27;45789;-68
2022/07/23 08:38:10;;;;;;;;;38.33;30.67;;;;;23.24;62.19;101735.66;5080488;27;45539;-68
2022/07/23 08:40:45;;;;;;;;;34.67;32.00;;;;;23.29;62.08;101737.97;5079449;28;45540;-68
2022/07/23 08:43:16;;;;;;;;;44.00;34.67;;;;;23.34;61.99;101741.13;5080190;27;45495;-68
2022/07/23 08:45:44;;;;;;;;;45.00;35.00;;;;;23.41;62.00;101738.72;5080784;28;45284;-68
2022/07/23 08:48:17;;;;;;;;;38.67;32.33;;;;;23.48;61.75;101739.88;5080103;28;45314;-67
2022/07/23 08:50:45;;;;;;;;;34.67;31.33;;;;;23.55;61.49;101743.75;5080212;27;45322;-67
2022/07/23 08:53:10;;;;;;;;;41.33;33.33;;;;;23.67;61.01;101743.63;5076857;27;45409;-67
2022/07/23 08:55:36;;;;;;;;;39.00;33.67;;;;;23.85;60.70;101750.09;5077514;28;45365;-67
2022/07/23 08:58:01;;;;;;;;;34.67;28.67;;;;;24.02;60.37;101753.16;5079597;27;65123;-67
2022/07/23 09:00:27;;;;;;;;;46.67;36.00;;;;;24.10;59.84;101747.84;5077283;28;45810;-68
2022/07/23 09:02:52;;;;;;;;;37.67;34.00;;;;;24.10;59.59;101750.56;5064715;28;45417;-68
2022/07/23 09:05:18;;;;;;;;;37.00;32.33;;;;;24.14;58.96;101737.56;5077661;28;61156;-67
2022/07/23 09:08:15;;;;;;;;;31.67;30.00;;;;;24.31;59.20;101730.53;5080018;27;45369;-68
2022/07/23 09:10:47;;;;;;;;;41.00;33.33;;;;;24.61;58.77;101740.34;5080188;27;45966;-68
2022/07/23 09:13:38;;;;;;;;;31.67;28.33;;;;;24.83;56.92;101739.19;5080167;27;45439;-68
2022/07/23 09:16:12;;;;;;;;;29.00;27.33;;;;;25.00;57.06;101743.00;5080257;27;45390;-68
2022/07/23 09:18:49;;;;;;;;;35.00;31.00;;;;;25.20;56.98;101741.06;5069482;27;45507;-68
2022/07/23 09:21:22;;;;;;;;;35.33;31.67;;;;;25.53;57.03;101740.66;5078350;28;45981;-68
2022/07/23 09:23:48;;;;;;;;;35.33;33.00;;;;;25.90;55.89;101736.94;5079671;27;45418;-68
2022/07/23 09:26:32;;;;;;;;;31.33;28.33;;;;;26.40;55.56;101736.41;5080147;27;45346;-68
2022/07/23 09:29:27;;;;;;;;;33.00;28.00;;;;;27.20;54.47;101735.34;5080477;27;45390;-68
2022/07/23 09:32:01;;;;;;;;;29.33;27.67;;;;;28.11;52.89;101743.84;5074490;28;45370;-67
2022/07/23 09:34:37;;;;;;;;;36.67;30.67;;;;;29.27;50.77;101733.59;5079863;27;45535;-68
2022/07/23 09:37:13;;;;;;;;;27.33;24.67;;;;;30.23;47.50;101732.47;5078762;27;45408;-68
2022/07/23 09:39:39;;;;;;;;;33.33;29.33;;;;;30.83;47.27;101728.81;5079256;27;45421;-69
2022/07/23 09:42:23;;;;;;;;;24.33;22.67;;;;;31.31;44.82;101730.31;5079313;27;45433;-70
2022/07/23 09:44:54;;;;;;;;;27.33;24.67;;;;;32.12;43.93;101735.66;5077055;28;45306;-69
2022/07/23 09:47:21;;;;;;;;;27.00;24.33;;;;;32.58;42.32;101748.13;5079552;27;45534;-68
2022/07/23 09:50:04;;;;;;;;;31.67;28.67;;;;;32.43;42.29;101745.47;5079644;27;45402;-69
2022/07/23 09:52:32;;;;;;;;;35.67;31.33;;;;;31.94;41.77;101741.63;5078708;27;46878;-70
2022/07/23 09:55:03;;;;;;;;;33.67;30.00;;;;;31.42;42.58;101738.06;5079714;27;45430;-69
2022/07/23 09:57:28;;;;;;;;;27.67;26.00;;;;;30.95;43.26;101742.06;5079358;27;45429;-69
2022/07/23 09:59:57;;;;;;;;;30.67;27.00;;;;;30.50;42.85;101750.25;5078122;27;45482;-68
2022/07/23 10:02:23;;;;;;;;;33.00;30.00;;;;;30.06;43.70;101745.47;5077264;27;46056;-67
2022/07/23 10:04:48;;;;;;;;;32.33;29.00;;;;;29.65;44.22;101733.72;5077302;28;45427;-67
2022/07/23 10:07:17;;;;;;;;;28.33;26.67;;;;;29.47;44.53;101733.16;5078808;27;62478;-67
2022/07/23 10:09:43;;;;;;;;;32.67;30.67;;;;;29.20;44.93;101730.69;5079678;27;45244;-69
2022/07/23 10:14:57;;;;;;;;;32.67;29.67;;;;;28.75;44.24;101737.66;5071000;28;45394;-68
2022/07/23 10:17:23;;;;;;;;;26.00;24.33;;;;;28.74;45.16;101738.69;5079164;27;45347;-69
2022/07/23 10:19:49;;;;;;;;;27.33;26.00;;;;;29.07;44.91;101744.06;5079567;27;45421;-69
2022/07/23 10:22:25;;;;;;;;;26.67;25.33;;;;;29.72;43.68;101744.81;5078569;27;46881;-69
2022/07/23 10:25:10;;;;;;;;;21.67;21.00;;;;;30.10;44.09;101739.41;5073814;28;45496;-69
2022/07/23 10:28:31;;;;;;;;;30.67;28.67;;;;;30.38;43.08;101729.75;5078020;28;45416;-68
2022/07/23 10:31:10;;;;;;;;;27.67;27.67;;;;;30.83;41.78;101728.81;5045022;28;45537;-68
2022/07/23 10:34:10;;;;;;;;;23.67;23.67;;;;;31.45;42.72;101732.19;5077027;28;45675;-68
2022/07/23 10:37:00;;;;;;;;;26.00;25.00;;;;;31.61;40.88;101736.63;5070197;27;45720;-69
2022/07/23 10:39:31;;;;;;;;;32.00;27.00;;;;;31.55;40.28;101750.25;5078172;28;45412;-68
2022/07/23 10:42:14;;;;;;;;;24.33;23.67;;;;;31.42;40.40;101745.44;5077004;28;45496;-68
2022/07/23 10:44:43;;;;;;;;;25.33;21.67;;;;;31.21;40.26;101751.75;5074428;28;45508;-68
2022/07/23 10:50:20;;;;;;;;;24.67;22.67;;;;;30.58;41.32;101768.53;5079009;28;45434;-69
2022/07/23 10:53:17;;;;;;;;;27.33;27.00;;;;;30.53;41.50;101769.09;5078953;27;45500;-69
2022/07/23 10:55:45;;;;;;;;;23.33;22.00;;;;;30.32;41.38;101776.09;5073496;28;46262;-69
2022/07/23 10:58:11;;;;;;;;;24.00;23.33;;;;;30.23;42.39;101777.19;5079111;28;45365;-69
2022/07/23 11:00:37;;;;;;;;;18.33;18.00;;;;;30.50;40.94;101777.69;5078228;27;62230;-68
2022/07/23 11:03:07;;;;;;;;;21.33;18.33;;;;;30.57;40.95;101780.56;5078577;27;45509;-68
2022/07/23 11:05:42;;;;;;;;;24.67;23.00;;;;;30.64;41.05;101784.28;5078632;27;46354;-68
2022/07/23 11:08:08;;;;;;;;;26.67;25.33;;;;;30.56;40.45;101784.31;5078644;27;45296;-69
2022/07/23 11:10:35;;;;;;;;;24.67;22.67;;;;;30.43;40.94;101782.19;5079112;27;45282;-68
2022/07/23 11:13:21;;;;;;;;;29.33;25.33;;;;;30.33;41.14;101786.03;5081567;28;45268;-70
2022/07/23 11:16:02;;;;;;;;;28.33;28.33;;;;;30.21;41.40;101782.03;5081196;27;46296;-69